Time;durP1;ratioP1;P1;durP2;ratioP2;P2;SDS_P1;SDS_P2;PMS_P1;PMS_P2;Temp;Humidity;BMP_temperature;BMP_pressure;BME280_temperature;BME280_humidity;BME280_pressure;Samples;Min_cycle;Max_cycle;Signal;HPM_P1;HPM_P2
2021/07/26 00:00:50;;;;;;;4.22;2.85;;;;;;;18.53;74.77;98941.31;5030739;28;20040;-65
2021/07/26 00:03:15;;;;;;;5.60;3.83;;;;;;;18.47;75.13;98938.41;5031832;28;20401;-65
2021/07/26 00:05:41;;;;;;;4.90;2.95;;;;;;;18.43;74.89;98941.38;5031190;28;20030;-66
2021/07/26 00:08:06;;;;;;;4.65;3.75;;;;;;;18.35;75.34;98937.75;5031374;28;20061;-65
2021/07/26 00:10:33;;;;;;;8.52;3.30;;;;;;;18.32;74.94;98943.38;5030949;28;20044;-65
2021/07/26 00:12:59;;;;;;;4.95;3.20;;;;;;;18.29;74.72;98939.19;5031287;28;20512;-66
2021/07/26 00:15:24;;;;;;;6.25;3.20;;;;;;;18.28;74.70;98939.31;5031227;28;20033;-65
2021/07/26 00:17:50;;;;;;;5.35;3.10;;;;;;;18.27;74.18;98929.63;5031299;28;20041;-65
2021/07/26 00:20:15;;;;;;;4.10;3.15;;;;;;;18.26;74.17;98934.13;5030192;28;20500;-66
2021/07/26 00:22:43;;;;;;;5.28;3.00;;;;;;;18.24;74.31;98926.28;5030819;28;20044;-64
2021/07/26 00:25:09;;;;;;;6.38;3.08;;;;;;;18.25;74.42;98932.44;5029420;28;20029;-64
2021/07/26 00:27:34;;;;;;;3.85;2.55;;;;;;;18.23;74.37;98931.75;5030452;28;20052;-65
2021/07/26 00:30:00;;;;;;;3.83;2.78;;;;;;;18.19;74.52;98922.38;5030702;28;20038;-65
2021/07/26 00:32:29;;;;;;;4.30;2.63;;;;;;;18.19;74.90;98922.38;5030457;28;20888;-64
2021/07/26 00:34:55;;;;;;;4.28;2.85;;;;;;;18.18;75.21;98918.84;5030836;28;20038;-66
2021/07/26 00:37:20;;;;;;;3.72;2.90;;;;;;;18.19;75.63;98925.03;5029599;28;20033;-66
2021/07/26 00:39:46;;;;;;;4.18;2.88;;;;;;;18.19;75.42;98917.03;5028361;28;20091;-66
2021/07/26 00:42:11;;;;;;;5.40;3.13;;;;;;;18.16;75.09;98923.50;5029242;28;20437;-66
2021/07/26 00:44:36;;;;;;;6.30;3.53;;;;;;;18.13;75.45;98918.44;5030415;28;20030;-65
2021/07/26 00:47:02;;;;;;;5.07;2.97;;;;;;;18.14;75.35;98925.47;5030400;28;20038;-65
2021/07/26 00:49:28;;;;;;;6.18;3.75;;;;;;;18.13;75.17;98918.44;5030349;28;20056;-66
2021/07/26 00:51:57;;;;;;;4.32;2.83;;;;;;;18.15;74.48;98920.97;5020696;28;20042;-67
2021/07/26 00:54:31;;;;;;;4.75;3.03;;;;;;;18.16;74.20;98915.50;5030586;28;20037;-66
2021/07/26 00:56:59;;;;;;;5.88;3.20;;;;;;;18.13;74.38;98910.44;5029325;28;20409;-65
2021/07/26 00:59:25;;;;;;;8.68;3.90;;;;;;;18.15;74.43;98911.13;5030241;28;20079;-66
2021/07/26 01:01:51;;;;;;;6.00;4.25;;;;;;;18.16;74.22;98901.28;5005485;28;20029;-66
2021/07/26 01:04:19;;;;;;;6.63;3.65;;;;;;;18.17;74.03;98898.50;5030119;28;20036;-66
2021/07/26 01:06:45;;;;;;;4.30;3.00;;;;;;;18.19;74.07;98906.38;5029583;28;20033;-67
2021/07/26 01:09:12;;;;;;;4.15;3.17;;;;;;;18.19;73.90;98904.53;5028873;28;20041;-64
2021/07/26 01:11:38;;;;;;;4.43;3.00;;;;;;;18.19;73.92;98899.19;5029802;28;20117;-66
2021/07/26 01:14:04;;;;;;;5.32;3.20;;;;;;;18.19;74.25;98899.19;5029817;28;20079;-65
2021/07/26 01:16:30;;;;;;;6.03;2.80;;;;;;;18.16;74.20;98904.81;5029994;28;20029;-67
2021/07/26 01:18:55;;;;;;;4.15;2.95;;;;;;;18.12;74.17;98895.41;5031252;28;20044;-66
2021/07/26 01:21:21;;;;;;;5.45;3.72;;;;;;;18.13;74.68;98894.41;5030675;28;20029;-66
2021/07/26 01:23:49;;;;;;;7.35;3.53;;;;;;;18.13;74.56;98901.59;5030134;28;20125;-66
2021/07/26 01:26:17;;;;;;;5.20;2.90;;;;;;;18.15;74.82;98905.78;5028829;28;20037;-66
2021/07/26 01:28:46;;;;;;;4.03;2.92;;;;;;;18.17;74.52;98906.50;5023177;28;20030;-65
2021/07/26 01:31:12;;;;;;;3.15;2.30;;;;;;;18.21;74.07;98912.38;5015229;28;20370;-66
2021/07/26 01:33:39;;;;;;;5.13;2.72;;;;;;;18.21;74.22;98904.38;5009687;28;20026;-66
2021/07/26 01:36:04;;;;;;;4.45;3.20;;;;;;;18.20;74.30;98900.84;5010220;28;20034;-66
2021/07/26 01:38:30;;;;;;;4.25;3.22;;;;;;;18.18;74.38;98897.50;5008878;28;20056;-66
2021/07/26 01:41:01;;;;;;;5.15;3.45;;;;;;;18.19;74.55;98901.84;5009784;28;20516;-66
2021/07/26 01:43:32;;;;;;;6.65;3.90;;;;;;;18.15;74.52;98904.97;5009583;28;20038;-66
2021/07/26 01:46:02;;;;;;;3.63;2.95;;;;;;;18.11;74.93;98907.06;5008966;28;20046;-67
2021/07/26 01:48:38;;;;;;;4.43;3.42;;;;;;;18.07;74.95;98897.69;5009540;28;20393;-66
2021/07/26 01:51:30;;;;;;;5.30;3.00;;;;;;;18.01;75.02;98900.91;5010086;28;20550;-66
2021/07/26 01:53:55;;;;;;;4.88;3.33;;;;;;;17.96;75.36;98903.19;5004335;28;20045;-67
2021/07/26 01:56:21;;;;;;;6.13;3.85;;;;;;;17.99;75.28;98894.88;5009650;28;20034;-66
2021/07/26 01:58:46;;;;;;;3.90;2.88;;;;;;;17.99;75.26;98898.41;5009740;28;20041;-66
2021/07/26 02:01:12;;;;;;;6.05;3.72;;;;;;;18.02;75.59;98902.63;5009185;28;20115;-66
2021/07/26 02:03:37;;;;;;;8.48;4.90;;;;;;;18.05;75.06;98896.97;5008284;28;20048;-66
2021/07/26 02:06:03;;;;;;;6.32;3.75;;;;;;;18.04;74.92;98900.66;5009799;28;20042;-67
2021/07/26 02:08:28;;;;;;;8.80;3.10;;;;;;;18.00;75.02;98912.59;5009438;28;20371;-67
2021/07/26 02:10:53;;;;;;;9.60;4.70;;;;;;;18.01;75.03;98904.41;5008484;28;20046;-67
2021/07/26 02:13:19;;;;;;;8.18;3.80;;;;;;;17.98;75.52;98903.88;5009513;28;20037;-66
2021/07/26 02:15:44;;;;;;;4.85;3.13;;;;;;;17.90;75.48;98915.28;5008238;28;20034;-66
2021/07/26 02:18:09;;;;;;;5.78;3.58;;;;;;;17.89;74.95;98910.91;5009102;28;20046;-66
2021/07/26 02:20:35;;;;;;;4.25;3.83;;;;;;;17.88;74.74;98913.75;5009001;28;20057;-66
2021/07/26 02:23:00;;;;;;;7.68;4.03;;;;;;;17.87;75.30;98912.03;5008105;28;20461;-66
2021/07/26 02:25:25;;;;;;;9.07;5.20;;;;;;;17.80;74.63;98909.13;5008718;28;20557;-66
2021/07/26 02:27:54;;;;;;;8.45;4.20;;;;;;;17.83;74.70;98919.50;5008894;28;20038;-66
2021/07/26 02:30:19;;;;;;;4.07;3.33;;;;;;;17.80;74.89;98917.13;5008038;28;20038;-66
2021/07/26 02:32:44;;;;;;;5.00;3.78;;;;;;;17.81;74.55;98914.28;5009175;28;20042;-66
2021/07/26 02:35:10;;;;;;;5.20;3.40;;;;;;;17.81;74.52;98919.63;5009257;28;20034;-69
2021/07/26 02:37:36;;;;;;;4.85;3.67;;;;;;;17.85;74.20;98924.69;5007903;28;20092;-65
2021/07/26 02:40:03;;;;;;;6.45;3.42;;;;;;;17.81;74.30;98927.63;5009244;28;20034;-66
2021/07/26 02:42:28;;;;;;;9.77;3.85;;;;;;;17.79;74.70;98929.59;5009119;28;20038;-67
2021/07/26 02:44:53;;;;;;;5.40;3.80;;;;;;;17.79;74.48;98921.59;5012933;28;20424;-67
2021/07/26 02:47:19;;;;;;;7.15;3.95;;;;;;;17.77;74.58;98923.56;5012551;28;20033;-66
2021/07/26 02:49:44;;;;;;;5.05;3.58;;;;;;;17.78;74.52;98925.22;5012629;28;20034;-65
2021/07/26 02:52:09;;;;;;;5.63;3.90;;;;;;;17.75;74.48;98930.84;5012045;28;20532;-67
2021/07/26 02:54:34;;;;;;;6.03;4.10;;;;;;;17.70;74.45;98930.44;5013344;28;20054;-65
2021/07/26 02:57:00;;;;;;;5.00;3.50;;;;;;;17.67;74.69;98933.38;5012689;28;20033;-66
2021/07/26 02:59:25;;;;;;;4.70;3.03;;;;;;;17.66;74.85;98936.19;5010478;28;20061;-65
2021/07/26 03:01:51;;;;;;;5.22;3.88;;;;;;;17.62;74.73;98940.94;5012714;28;20026;-66
2021/07/26 03:04:18;;;;;;;7.00;4.57;;;;;;;17.58;74.83;98942.22;5007249;28;20037;-67
2021/07/26 03:06:43;;;;;;;7.45;4.05;;;;;;;17.57;74.72;98946.72;5002477;28;20045;-66
2021/07/26 03:09:09;;;;;;;9.20;4.13;;;;;;;17.54;75.25;98943.47;5008189;28;20026;-65
2021/07/26 03:11:36;;;;;;;4.63;3.63;;;;;;;17.52;75.10;98951.63;5012572;28;20084;-65
2021/07/26 03:14:01;;;;;;;6.00;3.58;;;;;;;17.52;75.16;98956.09;5012218;28;20038;-65
2021/07/26 03:16:27;;;;;;;6.95;3.92;;;;;;;17.50;74.99;98960.72;5012516;28;20087;-65
2021/07/26 03:18:52;;;;;;;5.35;3.45;;;;;;;17.51;75.04;98959.75;5012377;28;20109;-65
2021/07/26 03:21:17;;;;;;;6.68;3.13;;;;;;;17.51;75.43;98957.94;5012035;28;20096;-64
2021/07/26 03:23:43;;;;;;;5.72;3.67;;;;;;;17.49;75.05;98943.91;5012342;28;20049;-65
2021/07/26 03:26:09;;;;;;;5.47;3.45;;;;;;;17.47;75.09;98945.84;5011888;28;20042;-64
2021/07/26 03:28:34;;;;;;;5.50;3.65;;;;;;;17.48;75.27;98952.88;5012245;28;20034;-64
2021/07/26 03:31:00;;;;;;;6.72;4.35;;;;;;;17.50;75.13;98953.59;5012026;28;20550;-65
2021/07/26 03:33:25;;;;;;;4.55;3.75;;;;;;;17.51;74.71;98951.75;5011677;28;20034;-65
2021/07/26 03:35:51;;;;;;;5.90;3.85;;;;;;;17.48;75.18;98952.88;5012030;28;20034;-65
2021/07/26 03:38:20;;;;;;;5.97;3.78;;;;;;;17.48;75.22;98952.06;5011420;28;20160;-66
2021/07/26 03:40:47;;;;;;;5.75;3.50;;;;;;;17.48;74.99;98960.03;5011855;28;20034;-66
2021/07/26 03:43:12;;;;;;;6.90;3.10;;;;;;;17.48;74.79;98962.72;5011745;28;20030;-66
2021/07/26 03:45:38;;;;;;;4.82;3.30;;;;;;;17.50;75.03;98966.03;5011486;28;20034;-66
2021/07/26 03:48:03;;;;;;;6.03;3.55;;;;;;;17.49;74.87;98970.53;5011592;28;20510;-66
2021/07/26 03:50:29;;;;;;;5.95;4.70;;;;;;;17.44;74.83;98974.63;5011351;28;20555;-65
2021/07/26 03:52:56;;;;;;;16.67;4.15;;;;;;;17.39;75.19;98972.38;5011989;28;20042;-65
2021/07/26 03:55:27;;;;;;;7.25;3.80;;;;;;;17.35;75.20;98974.47;5011450;28;20145;-66
2021/07/26 03:57:53;;;;;;;7.13;3.60;;;;;;;17.31;75.31;98975.72;5011145;28;20044;-66
2021/07/26 04:00:20;;;;;;;7.38;4.60;;;;;;;17.30;75.39;98973.19;5010057;28;20041;-66
2021/07/26 04:03:03;;;;;;;6.90;3.72;;;;;;;17.32;75.37;98965.91;5011761;28;20045;-65
2021/07/26 04:05:36;;;;;;;5.95;4.07;;;;;;;17.30;75.26;98968.72;5011265;28;20108;-65
2021/07/26 04:08:07;;;;;;;9.05;3.83;;;;;;;17.27;75.43;98962.81;5011003;28;20088;-66
2021/07/26 04:10:34;;;;;;;6.55;4.05;;;;;;;17.28;75.40;98970.69;5011351;28;20034;-66
2021/07/26 04:12:59;;;;;;;8.55;4.05;;;;;;;17.29;75.20;98975.00;5011079;28;20080;-66
2021/07/26 04:15:25;;;;;;;9.40;3.83;;;;;;;17.28;75.63;98972.50;5011283;28;20038;-65
2021/07/26 04:17:50;;;;;;;8.25;4.18;;;;;;;17.23;75.43;98972.06;5010971;28;20049;-66
2021/07/26 04:20:15;;;;;;;4.95;3.75;;;;;;;17.22;75.53;98970.38;5010983;28;20045;-65
2021/07/26 04:22:41;;;;;;;6.28;3.67;;;;;;;17.22;75.38;98968.56;5011319;28;20054;-65
2021/07/26 04:25:07;;;;;;;7.22;4.07;;;;;;;17.24;75.46;98977.25;5011748;28;20037;-65
2021/07/26 04:27:35;;;;;;;5.80;3.17;;;;;;;17.25;75.33;98973.59;5010735;28;20029;-65
2021/07/26 04:30:01;;;;;;;4.72;3.67;;;;;;;17.27;75.70;98974.31;5010606;28;20494;-66
2021/07/26 04:32:26;;;;;;;5.00;3.80;;;;;;;17.21;75.84;98980.19;5010522;28;20059;-66
2021/07/26 04:34:52;;;;;;;6.53;4.22;;;;;;;17.22;75.56;98976.53;5010596;28;20380;-67
2021/07/26 04:37:17;;;;;;;5.65;3.67;;;;;;;17.15;75.57;98978.94;5008801;28;20028;-65
2021/07/26 04:39:43;;;;;;;8.48;3.92;;;;;;;17.17;75.59;98982.28;5010804;28;20025;-65
2021/07/26 04:42:08;;;;;;;9.23;3.97;;;;;;;17.16;75.94;98974.44;5011664;28;20065;-65
2021/07/26 04:44:36;;;;;;;6.13;3.90;;;;;;;17.11;75.90;98974.84;5011197;28;20033;-65
2021/07/26 04:47:02;;;;;;;5.13;3.42;;;;;;;17.09;75.93;98979.47;5010466;28;20088;-65
2021/07/26 04:49:27;;;;;;;8.75;4.00;;;;;;;17.09;76.29;98981.28;5011435;28;20034;-66
2021/07/26 04:51:53;;;;;;;5.40;3.55;;;;;;;17.11;76.09;98985.50;5010519;28;20058;-65
2021/07/26 04:54:19;;;;;;;5.03;3.50;;;;;;;17.14;76.18;98984.38;5010330;28;20092;-66
2021/07/26 04:56:44;;;;;;;6.38;3.35;;;;;;;17.11;76.08;98988.16;5009864;28;20030;-66
2021/07/26 04:59:09;;;;;;;6.85;3.45;;;;;;;17.15;75.88;98991.38;5010119;28;20042;-65
2021/07/26 05:01:35;;;;;;;7.10;3.63;;;;;;;17.15;76.18;98991.38;5010482;28;20092;-65
2021/07/26 05:04:00;;;;;;;7.75;4.03;;;;;;;17.17;76.21;98984.09;5007753;28;20060;-65
2021/07/26 05:06:25;;;;;;;8.25;4.00;;;;;;;17.19;76.13;98990.16;5004697;28;20041;-65
2021/07/26 05:08:51;;;;;;;10.48;4.80;;;;;;;17.17;76.00;98986.78;5008956;28;20103;-65
2021/07/26 05:11:22;;;;;;;4.88;3.80;;;;;;;17.18;75.88;98985.81;5010024;28;20493;-65
2021/07/26 05:13:47;;;;;;;5.45;3.95;;;;;;;17.19;75.93;98981.31;5009466;28;20405;-64
2021/07/26 05:16:12;;;;;;;5.45;4.07;;;;;;;17.20;76.01;98989.16;5009259;28;20033;-65
2021/07/26 05:18:38;;;;;;;6.05;3.83;;;;;;;17.22;76.19;98981.88;5009922;28;20103;-65
2021/07/26 05:21:03;;;;;;;6.70;3.97;;;;;;;17.29;75.90;98987.50;5007943;28;20453;-65
2021/07/26 05:23:28;;;;;;;6.75;4.30;;;;;;;17.32;75.59;98987.22;5008075;28;20042;-65
2021/07/26 05:25:54;;;;;;;6.15;4.25;;;;;;;17.34;75.19;98987.94;5009690;28;20037;-65
2021/07/26 05:28:19;;;;;;;6.32;4.18;;;;;;;17.38;75.50;98989.34;5008892;28;20033;-65
2021/07/26 05:30:44;;;;;;;7.85;4.20;;;;;;;17.43;75.76;98994.25;4999810;28;20050;-65
2021/07/26 05:33:10;;;;;;;5.45;3.83;;;;;;;17.47;74.99;98999.16;5002079;28;20074;-65
2021/07/26 05:35:35;;;;;;;6.45;3.97;;;;;;;17.54;75.38;98999.44;5009316;28;20552;-66
2021/07/26 05:38:04;;;;;;;8.95;4.07;;;;;;;17.64;75.12;98999.44;5009691;28;20072;-65
2021/07/26 05:40:30;;;;;;;7.65;3.72;;;;;;;17.69;74.71;98999.88;5009345;28;20430;-66
2021/07/26 05:42:55;;;;;;;8.48;3.83;;;;;;;17.75;74.58;99000.16;5009223;28;20091;-64
2021/07/26 05:45:21;;;;;;;10.55;4.10;;;;;;;17.76;74.10;99006.31;5009227;28;20034;-65
2021/07/26 05:47:50;;;;;;;6.40;3.70;;;;;;;17.79;74.39;99000.72;5008922;28;20045;-71
2021/07/26 05:50:17;;;;;;;7.35;5.10;;;;;;;17.82;74.31;99013.81;5004142;28;20049;-70
2021/07/26 05:52:43;;;;;;;9.48;4.43;;;;;;;17.84;74.23;99010.97;4993917;28;20053;-71
2021/07/26 05:55:08;;;;;;;5.30;4.00;;;;;;;17.83;73.90;99011.97;5010070;28;20042;-70
2021/07/26 05:57:37;;;;;;;5.68;4.20;;;;;;;17.82;73.54;99005.81;5008215;28;20065;-70
2021/07/26 06:00:10;;;;;;;6.93;3.92;;;;;;;17.87;73.61;99016.03;5009175;28;20038;-70
2021/07/26 06:02:35;;;;;;;5.65;3.72;;;;;;;17.94;73.32;99009.16;5009900;28;20041;-72
2021/07/26 06:05:00;;;;;;;6.97;4.15;;;;;;;18.03;72.91;99005.63;5007417;28;20038;-71
2021/07/26 06:07:26;;;;;;;4.70;3.53;;;;;;;18.13;72.85;99008.28;5009121;28;20030;-70
2021/07/26 06:09:51;;;;;;;6.60;3.50;;;;;;;18.23;72.50;99009.13;5009139;28;20092;-70
2021/07/26 06:12:17;;;;;;;7.90;3.83;;;;;;;18.38;72.22;99006.84;5009273;28;20106;-69
2021/07/26 06:14:42;;;;;;;6.45;3.78;;;;;;;18.50;71.82;99000.34;5008039;28;20413;-70
2021/07/26 06:17:07;;;;;;;7.18;3.95;;;;;;;18.63;71.27;99000.00;5007941;28;20034;-70
2021/07/26 06:19:33;;;;;;;7.90;3.55;;;;;;;18.74;71.34;99004.34;5012747;28;20034;-70
2021/07/26 06:21:59;;;;;;;6.32;3.95;;;;;;;18.79;70.54;99002.94;5013544;28;20046;-71
2021/07/26 06:24:24;;;;;;;7.35;3.72;;;;;;;18.90;70.50;98993.88;5012995;28;20034;-70
2021/07/26 06:26:55;;;;;;;4.85;3.30;;;;;;;18.94;70.03;99000.63;5012505;28;20038;-71
2021/07/26 06:29:22;;;;;;;5.22;3.25;;;;;;;18.98;69.06;99001.19;5013122;28;20121;-70
2021/07/26 06:31:48;;;;;;;6.32;3.47;;;;;;;19.04;69.25;99001.41;5013205;28;20054;-71
2021/07/26 06:34:14;;;;;;;5.75;3.67;;;;;;;19.12;68.67;99005.16;5012806;28;20358;-69
2021/07/26 06:36:42;;;;;;;6.68;3.20;;;;;;;19.14;68.45;99006.69;5013081;28;20049;-70
2021/07/26 06:39:09;;;;;;;9.63;4.15;;;;;;;19.19;68.79;99014.25;5013030;28;20037;-70
2021/07/26 06:41:34;;;;;;;5.10;3.58;;;;;;;19.25;68.29;99011.84;5011615;28;20120;-71
2021/07/26 06:44:00;;;;;;;6.18;3.72;;;;;;;19.31;67.90;99010.41;5012960;28;20120;-69
2021/07/26 06:46:26;;;;;;;5.85;3.35;;;;;;;19.37;67.27;99016.97;5011659;28;20034;-69
2021/07/26 06:48:51;;;;;;;6.25;2.95;;;;;;;19.43;67.27;99013.69;4995068;28;20088;-69
2021/07/26 06:51:17;;;;;;;5.75;3.15;;;;;;;19.59;67.33;99015.69;5012687;28;20053;-70
2021/07/26 06:53:43;;;;;;;6.78;3.97;;;;;;;19.65;67.01;99018.59;5012225;28;20026;-70
2021/07/26 06:56:10;;;;;;;5.32;3.58;;;;;;;19.70;66.79;99020.84;5013413;28;20556;-70
2021/07/26 06:58:37;;;;;;;5.40;3.70;;;;;;;19.80;66.71;99023.44;5012505;28;20034;-70
2021/07/26 07:01:11;;;;;;;5.60;3.80;;;;;;;19.86;65.84;99025.50;5012350;28;20040;-70
2021/07/26 07:03:37;;;;;;;5.22;3.55;;;;;;;19.91;65.31;99025.88;5012710;28;20112;-71
2021/07/26 07:06:02;;;;;;;6.07;4.30;;;;;;;19.99;65.31;99030.47;5012212;28;20113;-71
2021/07/26 07:08:27;;;;;;;4.95;3.50;;;;;;;20.11;65.25;99026.56;5012124;28;20514;-70
2021/07/26 07:11:07;;;;;;;4.80;3.40;;;;;;;20.24;64.93;99031.50;5012338;28;20042;-70
2021/07/26 07:13:38;;;;;;;3.65;3.22;;;;;;;20.30;63.64;99022.84;5012187;28;20112;-71
2021/07/26 07:16:07;;;;;;;7.50;3.08;;;;;;;20.35;63.52;99021.41;5012950;28;20026;-70
2021/07/26 07:18:45;;;;;;;5.93;3.13;;;;;;;20.57;63.48;99024.56;5012610;28;20352;-71
2021/07/26 07:21:22;;;;;;;4.53;3.05;;;;;;;20.82;62.44;99022.84;5006570;28;20100;-70
2021/07/26 07:23:48;;;;;;;5.00;2.92;;;;;;;20.81;62.13;99026.53;5017014;28;20033;-70
2021/07/26 07:26:15;;;;;;;4.18;3.15;;;;;;;20.68;62.22;99029.66;5030606;28;20056;-70
2021/07/26 07:28:41;;;;;;;3.20;2.33;;;;;;;21.22;60.94;99029.41;5031112;28;20037;-71
2021/07/26 07:31:07;;;;;;;5.20;3.05;;;;;;;21.69;59.32;99028.03;5032016;28;20107;-71
2021/07/26 07:33:33;;;;;;;4.72;3.33;;;;;;;21.89;59.23;99032.09;5031573;28;20081;-71
2021/07/26 07:36:05;;;;;;;3.58;2.72;;;;;;;21.98;59.19;99036.47;5031890;28;20112;-71
2021/07/26 07:38:31;;;;;;;4.10;2.72;;;;;;;22.24;58.16;99032.78;5031156;28;20033;-71
2021/07/26 07:40:58;;;;;;;8.02;3.80;;;;;;;22.37;57.11;99033.09;5031811;28;20049;-71
2021/07/26 07:43:28;;;;;;;4.32;3.50;;;;;;;22.51;57.10;99037.78;5031921;28;20064;-71
2021/07/26 07:45:54;;;;;;;4.93;3.22;;;;;;;22.40;57.67;99035.47;5031402;28;20048;-71
2021/07/26 07:48:23;;;;;;;3.65;2.92;;;;;;;22.44;57.20;99036.78;5030613;28;20037;-70
2021/07/26 07:50:49;;;;;;;5.78;3.63;;;;;;;22.32;57.08;99038.13;5022953;28;20478;-71
2021/07/26 07:53:16;;;;;;;4.55;3.60;;;;;;;22.41;56.60;99042.50;5030886;28;20102;-70
2021/07/26 07:55:41;;;;;;;3.60;2.78;;;;;;;22.35;56.52;99036.97;5031361;28;20033;-70
2021/07/26 07:58:07;;;;;;;5.25;3.47;;;;;;;22.50;55.39;99046.88;5029478;28;20163;-70
2021/07/26 08:00:32;;;;;;;6.18;2.70;;;;;;;22.79;55.60;99045.47;5030022;28;20033;-70
2021/07/26 08:02:59;;;;;;;5.32;3.20;;;;;;;22.86;55.12;99050.97;5031232;28;20033;-71
2021/07/26 08:05:24;;;;;;;4.85;3.58;;;;;;;23.02;54.47;99045.59;5031110;28;20038;-70
2021/07/26 08:07:50;;;;;;;4.80;3.67;;;;;;;23.09;53.22;99037.66;5031105;28;20523;-71
2021/07/26 08:10:15;;;;;;;5.25;3.70;;;;;;;23.07;53.27;99045.06;5036378;28;20037;-71
2021/07/26 08:12:42;;;;;;;6.32;3.70;;;;;;;23.20;52.15;99048.03;5040507;28;20029;-70
2021/07/26 08:15:09;;;;;;;5.63;3.53;;;;;;;23.49;51.29;99046.56;5038621;28;20048;-71
2021/07/26 08:17:42;;;;;;;5.63;2.67;;;;;;;23.66;50.86;99048.13;5035448;28;20029;-71
2021/07/26 08:20:15;;;;;;;5.22;3.20;;;;;;;23.89;50.38;99044.63;5035528;28;20030;-70
2021/07/26 08:22:40;;;;;;;3.75;3.05;;;;;;;23.91;50.22;99042.59;5032129;28;20088;-71
2021/07/26 08:25:07;;;;;;;4.25;2.83;;;;;;;24.00;50.72;99047.75;5030504;28;20033;-70
2021/07/26 08:27:52;;;;;;;4.65;3.20;;;;;;;23.97;50.02;99040.03;5030957;28;20029;-70
2021/07/26 08:30:23;;;;;;;3.42;2.75;;;;;;;24.09;50.06;99043.13;5031478;28;20065;-71
2021/07/26 08:32:49;;;;;;;5.38;3.25;;;;;;;23.98;49.57;99046.25;5031554;28;20037;-71
2021/07/26 08:35:14;;;;;;;6.75;3.15;;;;;;;23.88;50.60;99049.19;5029433;28;20036;-71
2021/07/26 08:37:39;;;;;;;4.75;2.92;;;;;;;23.78;50.83;99046.72;5031014;28;20536;-71
2021/07/26 08:40:05;;;;;;;3.88;2.67;;;;;;;23.63;50.76;99053.00;5030433;28;20026;-70
2021/07/26 08:42:31;;;;;;;3.72;2.78;;;;;;;23.69;51.10;99052.31;5030831;28;20115;-70
2021/07/26 08:44:57;;;;;;;3.58;2.70;;;;;;;23.40;51.07;99053.81;5029393;28;20057;-71
2021/07/26 08:47:23;;;;;;;10.13;3.17;;;;;;;23.21;50.93;99055.09;5030290;28;20378;-71
2021/07/26 08:49:51;;;;;;;4.20;2.83;;;;;;;23.12;50.19;99051.59;5030213;28;20041;-71
2021/07/26 08:52:23;;;;;;;8.20;3.10;;;;;;;23.19;50.17;99046.38;5030308;28;20107;-71
2021/07/26 08:54:50;;;;;;;6.50;3.05;;;;;;;23.29;50.07;99055.06;5029916;28;20148;-71
2021/07/26 08:57:15;;;;;;;4.28;3.00;;;;;;;23.45;49.55;99056.81;5028720;28;20168;-71
2021/07/26 08:59:41;;;;;;;3.50;2.53;;;;;;;23.66;49.21;99063.44;5031069;28;20150;-71
2021/07/26 09:02:07;;;;;;;11.43;3.92;;;;;;;23.82;48.51;99059.81;5023611;28;20498;-69
2021/07/26 09:04:32;;;;;;;3.72;2.80;;;;;;;24.25;48.24;99062.88;5030420;28;20029;-70
2021/07/26 09:06:58;;;;;;;4.63;3.15;;;;;;;24.49;47.28;99064.53;5029806;28;20196;-71
2021/07/26 09:09:46;;;;;;;7.90;3.65;;;;;;;24.84;46.60;99058.47;5029603;28;20040;-70
2021/07/26 09:12:31;;;;;;;4.65;3.15;;;;;;;24.85;46.19;99053.91;5029807;28;20494;-71
2021/07/26 09:14:56;;;;;;;3.38;2.65;;;;;;;25.21;45.91;99059.41;5029996;28;20131;-70
2021/07/26 09:17:22;;;;;;;3.92;2.42;;;;;;;25.37;45.44;99060.22;5029708;28;20030;-70
2021/07/26 09:19:58;;;;;;;4.57;2.58;;;;;;;25.92;43.78;99062.34;5015141;28;20088;-69
2021/07/26 09:22:32;;;;;;;3.42;2.47;;;;;;;26.61;41.31;99060.88;4997741;28;20095;-69
2021/07/26 09:25:24;;;;;;;2.88;2.33;;;;;;;27.27;40.03;99065.88;4991382;28;20084;-72
2021/07/26 09:28:14;;;;;;;3.85;2.50;;;;;;;27.13;39.61;99064.13;4993909;28;20058;-70
2021/07/26 09:30:49;;;;;;;4.38;2.40;;;;;;;27.60;39.44;99068.72;5004623;28;20525;-70
2021/07/26 09:33:15;;;;;;;;;;;;;;;27.35;41.00;99075.72;4996178;28;20107;-71
2021/07/26 09:35:42;;;;;;;3.17;2.40;;;;;;;27.21;41.22;99073.97;5004732;28;20531;-69
2021/07/26 09:38:08;;;;;;;4.25;3.00;;;;;;;27.06;41.24;99080.31;4989718;28;20394;-70
2021/07/26 09:40:34;;;;;;;3.28;2.70;;;;;;;27.53;40.51;99078.69;4984351;28;20038;-71
2021/07/26 09:43:19;;;;;;;11.50;3.80;;;;;;;27.74;40.01;99072.31;4984399;28;20046;-70
2021/07/26 09:45:48;;;;;;;4.00;2.28;;;;;;;27.50;40.80;99070.97;4984078;28;20474;-71
2021/07/26 09:48:15;;;;;;;6.60;2.70;;;;;;;27.06;41.36;99074.91;4983824;28;20120;-71
2021/07/26 09:50:45;;;;;;;3.53;2.78;;;;;;;26.69;42.33;99079.66;4984454;28;20045;-70
2021/07/26 09:53:13;;;;;;;3.17;2.15;;;;;;;26.17;42.59;99082.72;4996169;28;20379;-72
2021/07/26 09:55:42;;;;;;;5.03;2.90;;;;;;;25.70;42.87;99072.25;5010026;28;20033;-72
2021/07/26 09:58:09;;;;;;;4.07;2.92;;;;;;;25.32;44.46;99081.53;5005145;28;20128;-71
2021/07/26 10:00:37;;;;;;;8.68;2.65;;;;;;;25.04;44.87;99083.00;4992428;28;20093;-72
2021/07/26 10:03:05;;;;;;;3.75;2.80;;;;;;;24.84;45.50;99074.63;5008439;28;20512;-71
2021/07/26 10:05:32;;;;;;;6.07;2.58;;;;;;;24.87;44.96;99075.28;5008989;28;20498;-72
2021/07/26 10:08:01;;;;;;;4.57;2.45;;;;;;;25.07;44.97;99081.78;5009651;28;20070;-71
2021/07/26 10:10:27;;;;;;;4.10;2.72;;;;;;;25.21;45.42;99081.00;5010235;28;20037;-71
2021/07/26 10:12:52;;;;;;;4.75;2.67;;;;;;;25.19;44.74;99084.91;5010664;28;20040;-71
2021/07/26 10:15:19;;;;;;;3.20;2.65;;;;;;;25.20;44.16;99084.72;5010608;28;20069;-71
2021/07/26 10:17:47;;;;;;;4.65;3.20;;;;;;;25.12;44.95;99089.34;5007037;28;20033;-71
2021/07/26 10:20:14;;;;;;;4.45;2.90;;;;;;;25.22;44.59;99082.66;5005543;28;20113;-72
2021/07/26 10:22:42;;;;;;;3.03;2.58;;;;;;;25.24;44.72;99094.09;5010624;28;20034;-70
2021/07/26 10:25:14;;;;;;;4.28;3.05;;;;;;;25.63;44.67;99089.41;5007715;28;20038;-70
2021/07/26 10:27:40;;;;;;;4.40;3.00;;;;;;;26.19;42.89;99086.06;5009036;28;20037;-70
2021/07/26 10:30:07;;;;;;;4.18;3.38;;;;;;;26.24;43.01;99081.75;5015347;28;20086;-71
2021/07/26 10:32:33;;;;;;;4.00;3.25;;;;;;;26.26;43.20;99079.72;5015787;28;20107;-72
2021/07/26 10:35:01;;;;;;;3.75;2.70;;;;;;;26.20;43.21;99079.63;5010555;28;20870;-70
2021/07/26 10:37:41;;;;;;;5.32;3.40;;;;;;;26.11;42.53;99090.59;5009943;28;20528;-70
2021/07/26 10:40:29;;;;;;;4.68;3.17;;;;;;;26.29;42.67;99081.19;4997329;28;20069;-72
2021/07/26 10:43:03;;;;;;;5.95;3.33;;;;;;;26.49;42.33;99092.16;4992319;28;20181;-71
2021/07/26 10:45:31;;;;;;;4.03;3.25;;;;;;;26.46;42.58;99077.16;5009840;28;20042;-71
2021/07/26 10:50:52;;;;;;;4.43;3.10;;;;;;;26.10;43.96;99080.78;5010467;28;20056;-72
2021/07/26 10:53:36;;;;;;;5.07;3.42;;;;;;;25.97;44.43;99085.25;5010743;28;20037;-70
2021/07/26 10:56:07;;;;;;;4.45;3.25;;;;;;;25.83;44.13;99085.06;5010690;28;20045;-70
2021/07/26 10:58:38;;;;;;;7.50;4.63;;;;;;;25.49;44.20;99086.53;5016120;28;20108;-70
2021/07/26 11:01:26;;;;;;;3.65;3.25;;;;;;;25.24;45.44;99088.69;5006111;28;20119;-71
2021/07/26 11:03:57;;;;;;;7.30;3.28;;;;;;;24.97;45.88;99087.47;5018327;28;20085;-71
2021/07/26 11:06:39;;;;;;;4.03;3.20;;;;;;;24.77;46.59;99089.88;5008578;28;20117;-71
2021/07/26 11:09:24;;;;;;;8.02;3.47;;;;;;;24.75;46.81;99089.22;5006806;28;20383;-70
2021/07/26 11:11:51;;;;;;;4.70;3.83;;;;;;;24.74;46.98;99084.03;4989343;28;20065;-70
2021/07/26 11:14:19;;;;;;;4.05;2.90;;;;;;;24.75;46.90;99080.28;4987324;28;20041;-71
2021/07/26 11:16:58;;;;;;;4.57;3.50;;;;;;;24.57;47.12;99089.56;4986768;28;20041;-70
2021/07/26 11:19:43;;;;;;;3.53;3.05;;;;;;;24.45;48.16;99080.22;4994920;28;20894;-71
2021/07/26 11:22:15;;;;;;;5.05;3.30;;;;;;;24.31;48.54;99091.78;5016330;28;20041;-71
2021/07/26 11:24:40;;;;;;;5.32;3.90;;;;;;;24.05;50.62;99087.63;4998042;28;20038;-71
2021/07/26 11:27:06;;;;;;;6.88;3.90;;;;;;;23.82;53.62;99100.22;5005978;28;20113;-71
2021/07/26 11:29:32;;;;;;;7.43;3.67;;;;;;;23.46;55.38;99088.09;5005973;28;20034;-70
2021/07/26 11:31:58;;;;;;;5.72;3.55;;;;;;;23.22;57.31;99091.72;5007901;28;20120;-71
2021/07/26 11:34:28;;;;;;;5.60;3.90;;;;;;;23.01;58.09;99080.69;5000581;28;20085;-72
2021/07/26 11:37:13;;;;;;;4.20;3.45;;;;;;;22.95;57.50;99084.88;4988654;28;20125;-71
2021/07/26 11:39:53;;;;;;;4.43;3.60;;;;;;;22.98;56.82;99089.13;4998180;28;20061;-71